sensor_id;sensor_type;location;lat;lon;timestamp;pressure;altitude;pressure_sealevel;temperature
16956;BMP180;8594;52.052;8.354;2023-03-08T00:00:41;98972.00;;;4.40
16956;BMP180;8594;52.052;8.354;2023-03-08T00:03:12;98973.00;;;4.40
16956;BMP180;8594;52.052;8.354;2023-03-08T00:05:41;98971.00;;;4.30
16956;BMP180;8594;52.052;8.354;2023-03-08T00:08:08;98989.00;;;4.10
16956;BMP180;8594;52.052;8.354;2023-03-08T00:10:36;98980.00;;;4.20
16956;BMP180;8594;52.052;8.354;2023-03-08T00:13:03;98985.00;;;4.70
16956;BMP180;8594;52.052;8.354;2023-03-08T00:15:29;98987.00;;;4.40
16956;BMP180;8594;52.052;8.354;2023-03-08T00:17:56;98986.00;;;3.90
16956;BMP180;8594;52.052;8.354;2023-03-08T00:20:23;98985.00;;;4.50
16956;BMP180;8594;52.052;8.354;2023-03-08T00:22:51;98989.00;;;4.50
16956;BMP180;8594;52.052;8.354;2023-03-08T00:25:18;98985.00;;;4.50
16956;BMP180;8594;52.052;8.354;2023-03-08T00:27:45;98992.00;;;4.30
16956;BMP180;8594;52.052;8.354;2023-03-08T00:30:13;98997.00;;;3.80
16956;BMP180;8594;52.052;8.354;2023-03-08T00:32:40;98993.00;;;4.10
16956;BMP180;8594;52.052;8.354;2023-03-08T00:35:08;98990.00;;;4.10
16956;BMP180;8594;52.052;8.354;2023-03-08T00:37:35;98994.00;;;4.40
16956;BMP180;8594;52.052;8.354;2023-03-08T00:40:04;98992.00;;;4.00
16956;BMP180;8594;52.052;8.354;2023-03-08T00:42:31;99001.00;;;4.30
16956;BMP180;8594;52.052;8.354;2023-03-08T00:44:58;98991.00;;;4.00
16956;BMP180;8594;52.052;8.354;2023-03-08T00:47:25;98989.00;;;3.90
16956;BMP180;8594;52.052;8.354;2023-03-08T00:49:52;98978.00;;;3.90
16956;BMP180;8594;52.052;8.354;2023-03-08T00:52:18;98985.00;;;4.10
16956;BMP180;8594;52.052;8.354;2023-03-08T00:54:45;98986.00;;;3.90
16956;BMP180;8594;52.052;8.354;2023-03-08T00:57:13;98985.00;;;4.50
16956;BMP180;8594;52.052;8.354;2023-03-08T00:59:40;98994.00;;;4.50
16956;BMP180;8594;52.052;8.354;2023-03-08T01:02:07;98992.00;;;4.60
16956;BMP180;8594;52.052;8.354;2023-03-08T01:04:34;98984.00;;;4.70
16956;BMP180;8594;52.052;8.354;2023-03-08T01:07:01;98989.00;;;4.50
16956;BMP180;8594;52.052;8.354;2023-03-08T01:09:28;98987.00;;;4.60
16956;BMP180;8594;52.052;8.354;2023-03-08T01:11:54;98982.00;;;4.50
16956;BMP180;8594;52.052;8.354;2023-03-08T01:14:23;98977.00;;;4.70
16956;BMP180;8594;52.052;8.354;2023-03-08T01:16:50;98986.00;;;4.70
16956;BMP180;8594;52.052;8.354;2023-03-08T01:19:17;98974.00;;;4.40
16956;BMP180;8594;52.052;8.354;2023-03-08T01:21:43;98988.00;;;4.70
16956;BMP180;8594;52.052;8.354;2023-03-08T01:24:10;98976.00;;;4.80
16956;BMP180;8594;52.052;8.354;2023-03-08T01:26:37;98979.00;;;4.80
16956;BMP180;8594;52.052;8.354;2023-03-08T01:29:04;98966.00;;;4.10
16956;BMP180;8594;52.052;8.354;2023-03-08T01:31:32;98965.00;;;4.70
16956;BMP180;8594;52.052;8.354;2023-03-08T01:33:59;98968.00;;;4.70
16956;BMP180;8594;52.052;8.354;2023-03-08T01:36:27;98974.00;;;4.70
16956;BMP180;8594;52.052;8.354;2023-03-08T01:38:54;98967.00;;;4.60
16956;BMP180;8594;52.052;8.354;2023-03-08T01:41:24;98964.00;;;4.50
16956;BMP180;8594;52.052;8.354;2023-03-08T01:43:52;98968.00;;;4.60
16956;BMP180;8594;52.052;8.354;2023-03-08T01:46:25;98969.00;;;4.60
16956;BMP180;8594;52.052;8.354;2023-03-08T01:49:04;98970.00;;;4.70
16956;BMP180;8594;52.052;8.354;2023-03-08T01:51:37;98966.00;;;4.50
16956;BMP180;8594;52.052;8.354;2023-03-08T01:54:09;98966.00;;;4.50
16956;BMP180;8594;52.052;8.354;2023-03-08T01:56:39;98963.00;;;4.60
16956;BMP180;8594;52.052;8.354;2023-03-08T01:59:07;98958.00;;;4.50
16956;BMP180;8594;52.052;8.354;2023-03-08T02:01:34;98952.00;;;4.50
16956;BMP180;8594;52.052;8.354;2023-03-08T02:04:03;98948.00;;;4.40
16956;BMP180;8594;52.052;8.354;2023-03-08T02:06:31;98949.00;;;4.40
16956;BMP180;8594;52.052;8.354;2023-03-08T02:08:59;98949.00;;;4.40
16956;BMP180;8594;52.052;8.354;2023-03-08T02:11:29;98949.00;;;4.40
16956;BMP180;8594;52.052;8.354;2023-03-08T02:13:56;98936.00;;;4.30
16956;BMP180;8594;52.052;8.354;2023-03-08T02:16:23;98938.00;;;4.60
16956;BMP180;8594;52.052;8.354;2023-03-08T02:18:56;98941.00;;;4.80
16956;BMP180;8594;52.052;8.354;2023-03-08T02:21:26;98930.00;;;4.50
16956;BMP180;8594;52.052;8.354;2023-03-08T02:24:01;98940.00;;;4.70
16956;BMP180;8594;52.052;8.354;2023-03-08T02:26:28;98937.00;;;4.50
16956;BMP180;8594;52.052;8.354;2023-03-08T02:28:55;98927.00;;;4.30
16956;BMP180;8594;52.052;8.354;2023-03-08T02:31:22;98935.00;;;4.50
16956;BMP180;8594;52.052;8.354;2023-03-08T02:33:49;98928.00;;;4.60
16956;BMP180;8594;52.052;8.354;2023-03-08T02:36:15;98926.00;;;4.30
16956;BMP180;8594;52.052;8.354;2023-03-08T02:38:42;98929.00;;;4.60
16956;BMP180;8594;52.052;8.354;2023-03-08T02:41:10;98927.00;;;4.10
16956;BMP180;8594;52.052;8.354;2023-03-08T02:43:37;98917.00;;;3.60
16956;BMP180;8594;52.052;8.354;2023-03-08T02:46:04;98920.00;;;3.70
16956;BMP180;8594;52.052;8.354;2023-03-08T02:48:36;98918.00;;;4.30
16956;BMP180;8594;52.052;8.354;2023-03-08T02:51:03;98924.00;;;4.20
16956;BMP180;8594;52.052;8.354;2023-03-08T02:53:30;98917.00;;;4.40
16956;BMP180;8594;52.052;8.354;2023-03-08T02:55:57;98912.00;;;4.20
16956;BMP180;8594;52.052;8.354;2023-03-08T02:58:25;98903.00;;;4.10
16956;BMP180;8594;52.052;8.354;2023-03-08T03:00:51;98912.00;;;4.20
16956;BMP180;8594;52.052;8.354;2023-03-08T03:03:18;98904.00;;;4.30
16956;BMP180;8594;52.052;8.354;2023-03-08T03:05:45;98895.00;;;4.40
16956;BMP180;8594;52.052;8.354;2023-03-08T03:08:12;98895.00;;;4.10
16956;BMP180;8594;52.052;8.354;2023-03-08T03:10:39;98900.00;;;4.10
16956;BMP180;8594;52.052;8.354;2023-03-08T03:13:06;98899.00;;;3.90
16956;BMP180;8594;52.052;8.354;2023-03-08T03:15:37;98894.00;;;3.80
16956;BMP180;8594;52.052;8.354;2023-03-08T03:18:04;98887.00;;;3.90
16956;BMP180;8594;52.052;8.354;2023-03-08T03:20:31;98893.00;;;4.00
16956;BMP180;8594;52.052;8.354;2023-03-08T03:22:58;98892.00;;;4.20
16956;BMP180;8594;52.052;8.354;2023-03-08T03:25:25;98887.00;;;3.50
16956;BMP180;8594;52.052;8.354;2023-03-08T03:27:53;98887.00;;;3.90
16956;BMP180;8594;52.052;8.354;2023-03-08T03:30:20;98895.00;;;3.80
16956;BMP180;8594;52.052;8.354;2023-03-08T03:32:48;98894.00;;;3.80
16956;BMP180;8594;52.052;8.354;2023-03-08T03:35:15;98908.00;;;4.00
16956;BMP180;8594;52.052;8.354;2023-03-08T03:37:42;98899.00;;;4.10
16956;BMP180;8594;52.052;8.354;2023-03-08T03:40:11;98905.00;;;4.10
16956;BMP180;8594;52.052;8.354;2023-03-08T03:42:38;98904.00;;;4.20
16956;BMP180;8594;52.052;8.354;2023-03-08T03:45:06;98905.00;;;4.10
16956;BMP180;8594;52.052;8.354;2023-03-08T03:47:33;98916.00;;;4.00
16956;BMP180;8594;52.052;8.354;2023-03-08T03:50:02;98917.00;;;4.40
16956;BMP180;8594;52.052;8.354;2023-03-08T03:52:29;98903.00;;;4.30
16956;BMP180;8594;52.052;8.354;2023-03-08T03:54:55;98901.00;;;4.40
16956;BMP180;8594;52.052;8.354;2023-03-08T03:57:23;98908.00;;;4.10
16956;BMP180;8594;52.052;8.354;2023-03-08T03:59:49;98907.00;;;4.10
16956;BMP180;8594;52.052;8.354;2023-03-08T04:02:16;98911.00;;;3.50
16956;BMP180;8594;52.052;8.354;2023-03-08T04:04:43;98905.00;;;4.10
16956;BMP180;8594;52.052;8.354;2023-03-08T04:07:11;98907.00;;;3.70
16956;BMP180;8594;52.052;8.354;2023-03-08T04:09:38;98904.00;;;4.10
16956;BMP180;8594;52.052;8.354;2023-03-08T04:12:05;98910.00;;;4.10
16956;BMP180;8594;52.052;8.354;2023-03-08T04:14:32;98905.00;;;3.80
16956;BMP180;8594;52.052;8.354;2023-03-08T04:16:59;98907.00;;;3.50
16956;BMP180;8594;52.052;8.354;2023-03-08T04:19:26;98901.00;;;3.80
16956;BMP180;8594;52.052;8.354;2023-03-08T04:21:52;98896.00;;;3.50
16956;BMP180;8594;52.052;8.354;2023-03-08T04:24:21;98890.00;;;3.80
16956;BMP180;8594;52.052;8.354;2023-03-08T04:26:47;98896.00;;;3.70
16956;BMP180;8594;52.052;8.354;2023-03-08T04:29:14;98898.00;;;3.70
16956;BMP180;8594;52.052;8.354;2023-03-08T04:31:41;98908.00;;;3.70
16956;BMP180;8594;52.052;8.354;2023-03-08T04:34:08;98897.00;;;3.40
16956;BMP180;8594;52.052;8.354;2023-03-08T04:36:36;98893.00;;;3.50
16956;BMP180;8594;52.052;8.354;2023-03-08T04:39:03;98890.00;;;3.60
16956;BMP180;8594;52.052;8.354;2023-03-08T04:41:31;98887.00;;;3.80
16956;BMP180;8594;52.052;8.354;2023-03-08T04:43:58;98886.00;;;3.30
16956;BMP180;8594;52.052;8.354;2023-03-08T04:46:26;98879.00;;;3.30
16956;BMP180;8594;52.052;8.354;2023-03-08T04:48:54;98869.00;;;3.80
16956;BMP180;8594;52.052;8.354;2023-03-08T04:51:23;98865.00;;;3.80
16956;BMP180;8594;52.052;8.354;2023-03-08T04:53:50;98861.00;;;3.80
16956;BMP180;8594;52.052;8.354;2023-03-08T04:56:17;98861.00;;;3.80
16956;BMP180;8594;52.052;8.354;2023-03-08T04:58:46;98854.00;;;3.80
16956;BMP180;8594;52.052;8.354;2023-03-08T05:01:16;98844.00;;;3.80
16956;BMP180;8594;52.052;8.354;2023-03-08T05:03:44;98843.00;;;3.70
16956;BMP180;8594;52.052;8.354;2023-03-08T05:06:12;98848.00;;;4.00
16956;BMP180;8594;52.052;8.354;2023-03-08T05:08:39;98845.00;;;3.80
16956;BMP180;8594;52.052;8.354;2023-03-08T05:11:07;98844.00;;;3.90
16956;BMP180;8594;52.052;8.354;2023-03-08T05:13:36;98840.00;;;3.80
16956;BMP180;8594;52.052;8.354;2023-03-08T05:16:06;98846.00;;;3.70
16956;BMP180;8594;52.052;8.354;2023-03-08T05:18:33;98847.00;;;3.60
16956;BMP180;8594;52.052;8.354;2023-03-08T05:21:03;98848.00;;;3.80
16956;BMP180;8594;52.052;8.354;2023-03-08T05:23:31;98859.00;;;3.80
16956;BMP180;8594;52.052;8.354;2023-03-08T05:26:00;98851.00;;;4.00
16956;BMP180;8594;52.052;8.354;2023-03-08T05:28:30;98841.00;;;3.90
16956;BMP180;8594;52.052;8.354;2023-03-08T05:31:02;98844.00;;;3.90
16956;BMP180;8594;52.052;8.354;2023-03-08T05:33:30;98841.00;;;3.70
16956;BMP180;8594;52.052;8.354;2023-03-08T05:35:57;98831.00;;;3.90
16956;BMP180;8594;52.052;8.354;2023-03-08T05:38:24;98827.00;;;4.10
16956;BMP180;8594;52.052;8.354;2023-03-08T05:40:52;98825.00;;;4.10
16956;BMP180;8594;52.052;8.354;2023-03-08T05:43:19;98827.00;;;4.20
16956;BMP180;8594;52.052;8.354;2023-03-08T05:45:54;98811.00;;;4.00
16956;BMP180;8594;52.052;8.354;2023-03-08T05:48:22;98813.00;;;4.10
16956;BMP180;8594;52.052;8.354;2023-03-08T05:50:51;98815.00;;;3.70
16956;BMP180;8594;52.052;8.354;2023-03-08T05:53:18;98815.00;;;3.80
16956;BMP180;8594;52.052;8.354;2023-03-08T05:55:44;98812.00;;;3.80
16956;BMP180;8594;52.052;8.354;2023-03-08T05:58:11;98803.00;;;4.00
16956;BMP180;8594;52.052;8.354;2023-03-08T06:00:38;98806.00;;;4.10
16956;BMP180;8594;52.052;8.354;2023-03-08T06:03:05;98802.00;;;4.00
16956;BMP180;8594;52.052;8.354;2023-03-08T06:05:33;98796.00;;;4.00
16956;BMP180;8594;52.052;8.354;2023-03-08T06:08:01;98788.00;;;4.10
16956;BMP180;8594;52.052;8.354;2023-03-08T06:10:28;98792.00;;;4.00
16956;BMP180;8594;52.052;8.354;2023-03-08T06:12:54;98780.00;;;3.90
16956;BMP180;8594;52.052;8.354;2023-03-08T06:15:22;98778.00;;;4.00
16956;BMP180;8594;52.052;8.354;2023-03-08T06:17:51;98777.00;;;3.90
16956;BMP180;8594;52.052;8.354;2023-03-08T06:20:19;98770.00;;;4.10
16956;BMP180;8594;52.052;8.354;2023-03-08T06:22:46;98769.00;;;4.10
16956;BMP180;8594;52.052;8.354;2023-03-08T06:25:14;98770.00;;;4.20
16956;BMP180;8594;52.052;8.354;2023-03-08T06:27:41;98770.00;;;4.10
16956;BMP180;8594;52.052;8.354;2023-03-08T06:30:10;98777.00;;;4.20
16956;BMP180;8594;52.052;8.354;2023-03-08T06:32:37;98769.00;;;3.90
16956;BMP180;8594;52.052;8.354;2023-03-08T06:35:05;98773.00;;;4.20
16956;BMP180;8594;52.052;8.354;2023-03-08T06:37:32;98767.00;;;4.20
16956;BMP180;8594;52.052;8.354;2023-03-08T06:39:59;98763.00;;;4.40
16956;BMP180;8594;52.052;8.354;2023-03-08T06:42:28;98765.00;;;4.50
16956;BMP180;8594;52.052;8.354;2023-03-08T06:44:55;98763.00;;;4.70
16956;BMP180;8594;52.052;8.354;2023-03-08T06:47:22;98758.00;;;5.10
16956;BMP180;8594;52.052;8.354;2023-03-08T06:49:49;98753.00;;;5.00
16956;BMP180;8594;52.052;8.354;2023-03-08T06:52:18;98753.00;;;5.10
16956;BMP180;8594;52.052;8.354;2023-03-08T06:54:44;98742.00;;;4.90
16956;BMP180;8594;52.052;8.354;2023-03-08T06:57:11;98740.00;;;4.50
16956;BMP180;8594;52.052;8.354;2023-03-08T06:59:39;98738.00;;;5.00
16956;BMP180;8594;52.052;8.354;2023-03-08T07:02:07;98732.00;;;5.00
16956;BMP180;8594;52.052;8.354;2023-03-08T07:04:34;98732.00;;;4.40
16956;BMP180;8594;52.052;8.354;2023-03-08T07:07:01;98724.00;;;4.70
16956;BMP180;8594;52.052;8.354;2023-03-08T07:09:28;98717.00;;;4.60
16956;BMP180;8594;52.052;8.354;2023-03-08T07:11:54;98716.00;;;4.90
16956;BMP180;8594;52.052;8.354;2023-03-08T07:14:21;98722.00;;;4.70
16956;BMP180;8594;52.052;8.354;2023-03-08T07:16:49;98719.00;;;4.90
16956;BMP180;8594;52.052;8.354;2023-03-08T07:19:16;98717.00;;;4.70
16956;BMP180;8594;52.052;8.354;2023-03-08T07:21:43;98708.00;;;4.80
16956;BMP180;8594;52.052;8.354;2023-03-08T07:24:10;98712.00;;;4.60
16956;BMP180;8594;52.052;8.354;2023-03-08T07:26:37;98709.00;;;4.50
16956;BMP180;8594;52.052;8.354;2023-03-08T07:29:04;98702.00;;;4.60
16956;BMP180;8594;52.052;8.354;2023-03-08T07:31:32;98706.00;;;4.40
16956;BMP180;8594;52.052;8.354;2023-03-08T07:34:02;98706.00;;;4.30
16956;BMP180;8594;52.052;8.354;2023-03-08T07:36:29;98704.00;;;4.50
16956;BMP180;8594;52.052;8.354;2023-03-08T07:38:56;98697.00;;;4.70
16956;BMP180;8594;52.052;8.354;2023-03-08T07:41:23;98693.00;;;4.80
16956;BMP180;8594;52.052;8.354;2023-03-08T07:43:49;98696.00;;;4.90
16956;BMP180;8594;52.052;8.354;2023-03-08T07:46:16;98701.00;;;4.70
16956;BMP180;8594;52.052;8.354;2023-03-08T07:48:43;98703.00;;;4.40
16956;BMP180;8594;52.052;8.354;2023-03-08T07:51:11;98697.00;;;4.70
16956;BMP180;8594;52.052;8.354;2023-03-08T07:53:38;98691.00;;;4.70
16956;BMP180;8594;52.052;8.354;2023-03-08T07:56:06;98696.00;;;4.80
16956;BMP180;8594;52.052;8.354;2023-03-08T07:58:33;98705.00;;;4.50
16956;BMP180;8594;52.052;8.354;2023-03-08T08:00:59;98692.00;;;4.90
16956;BMP180;8594;52.052;8.354;2023-03-08T08:03:28;98696.00;;;4.70
16956;BMP180;8594;52.052;8.354;2023-03-08T08:05:55;98690.00;;;5.00
16956;BMP180;8594;52.052;8.354;2023-03-08T08:08:23;98695.00;;;5.00
16956;BMP180;8594;52.052;8.354;2023-03-08T08:10:50;98694.00;;;4.90
16956;BMP180;8594;52.052;8.354;2023-03-08T08:13:17;98688.00;;;4.80
16956;BMP180;8594;52.052;8.354;2023-03-08T08:15:43;98696.00;;;5.10
16956;BMP180;8594;52.052;8.354;2023-03-08T08:18:10;98689.00;;;5.00
16956;BMP180;8594;52.052;8.354;2023-03-08T08:20:37;98690.00;;;5.00
16956;BMP180;8594;52.052;8.354;2023-03-08T08:23:05;98685.00;;;4.70
16956;BMP180;8594;52.052;8.354;2023-03-08T08:25:33;98683.00;;;4.70
16956;BMP180;8594;52.052;8.354;2023-03-08T08:28:00;98689.00;;;4.90
16956;BMP180;8594;52.052;8.354;2023-03-08T08:30:27;98680.00;;;5.20
16956;BMP180;8594;52.052;8.354;2023-03-08T08:32:53;98681.00;;;5.20
16956;BMP180;8594;52.052;8.354;2023-03-08T08:35:20;98671.00;;;5.30
16956;BMP180;8594;52.052;8.354;2023-03-08T08:37:47;98664.00;;;5.30
16956;BMP180;8594;52.052;8.354;2023-03-08T08:40:14;98661.00;;;4.70
16956;BMP180;8594;52.052;8.354;2023-03-08T08:42:42;98657.00;;;4.70
16956;BMP180;8594;52.052;8.354;2023-03-08T08:45:10;98655.00;;;5.00
16956;BMP180;8594;52.052;8.354;2023-03-08T08:47:37;98657.00;;;4.80
16956;BMP180;8594;52.052;8.354;2023-03-08T08:50:05;98643.00;;;4.50
16956;BMP180;8594;52.052;8.354;2023-03-08T08:52:51;98649.00;;;4.80
16956;BMP180;8594;52.052;8.354;2023-03-08T08:55:20;98642.00;;;4.60
16956;BMP180;8594;52.052;8.354;2023-03-08T08:57:49;98642.00;;;4.50
16956;BMP180;8594;52.052;8.354;2023-03-08T09:00:17;98633.00;;;4.40
16956;BMP180;8594;52.052;8.354;2023-03-08T09:02:44;98635.00;;;4.70
16956;BMP180;8594;52.052;8.354;2023-03-08T09:05:11;98630.00;;;4.70
16956;BMP180;8594;52.052;8.354;2023-03-08T09:07:38;98625.00;;;4.60
16956;BMP180;8594;52.052;8.354;2023-03-08T09:10:07;98619.00;;;4.70
16956;BMP180;8594;52.052;8.354;2023-03-08T09:12:34;98627.00;;;5.00
16956;BMP180;8594;52.052;8.354;2023-03-08T09:15:03;98618.00;;;4.70
16956;BMP180;8594;52.052;8.354;2023-03-08T09:17:30;98620.00;;;4.80
16956;BMP180;8594;52.052;8.354;2023-03-08T09:19:58;98628.00;;;4.80
16956;BMP180;8594;52.052;8.354;2023-03-08T09:22:25;98616.00;;;4.70
16956;BMP180;8594;52.052;8.354;2023-03-08T09:24:52;98620.00;;;4.80
16956;BMP180;8594;52.052;8.354;2023-03-08T09:27:19;98609.00;;;5.10
16956;BMP180;8594;52.052;8.354;2023-03-08T09:29:46;98601.00;;;4.60
16956;BMP180;8594;52.052;8.354;2023-03-08T09:32:14;98598.00;;;4.50
16956;BMP180;8594;52.052;8.354;2023-03-08T09:34:41;98592.00;;;4.70
16956;BMP180;8594;52.052;8.354;2023-03-08T09:37:09;98600.00;;;4.90
16956;BMP180;8594;52.052;8.354;2023-03-08T09:39:36;98583.00;;;4.70
16956;BMP180;8594;52.052;8.354;2023-03-08T09:42:15;98584.00;;;4.80
16956;BMP180;8594;52.052;8.354;2023-03-08T09:45:12;98581.00;;;4.90
16956;BMP180;8594;52.052;8.354;2023-03-08T09:47:48;98573.00;;;4.70
16956;BMP180;8594;52.052;8.354;2023-03-08T09:50:37;98561.00;;;4.90
16956;BMP180;8594;52.052;8.354;2023-03-08T09:53:19;98563.00;;;4.60
16956;BMP180;8594;52.052;8.354;2023-03-08T09:55:50;98569.00;;;4.50
16956;BMP180;8594;52.052;8.354;2023-03-08T09:58:35;98574.00;;;4.80
16956;BMP180;8594;52.052;8.354;2023-03-08T10:01:20;98569.00;;;5.10
16956;BMP180;8594;52.052;8.354;2023-03-08T10:04:26;98565.00;;;4.90
16956;BMP180;8594;52.052;8.354;2023-03-08T10:10:03;98553.00;;;5.10
16956;BMP180;8594;52.052;8.354;2023-03-08T10:12:43;98553.00;;;5.40
16956;BMP180;8594;52.052;8.354;2023-03-08T10:15:17;98551.00;;;4.60
16956;BMP180;8594;52.052;8.354;2023-03-08T10:17:49;98560.00;;;5.00
16956;BMP180;8594;52.052;8.354;2023-03-08T10:20:23;98547.00;;;4.60
16956;BMP180;8594;52.052;8.354;2023-03-08T10:22:57;98550.00;;;5.10
16956;BMP180;8594;52.052;8.354;2023-03-08T10:25:26;98543.00;;;5.00
16956;BMP180;8594;52.052;8.354;2023-03-08T10:27:58;98547.00;;;4.80
16956;BMP180;8594;52.052;8.354;2023-03-08T10:30:32;98541.00;;;4.70
16956;BMP180;8594;52.052;8.354;2023-03-08T10:33:04;98536.00;;;4.60
16956;BMP180;8594;52.052;8.354;2023-03-08T10:35:35;98541.00;;;4.80
16956;BMP180;8594;52.052;8.354;2023-03-08T10:38:03;98536.00;;;4.60
16956;BMP180;8594;52.052;8.354;2023-03-08T10:40:31;98534.00;;;4.70
16956;BMP180;8594;52.052;8.354;2023-03-08T10:43:02;98536.00;;;4.90
16956;BMP180;8594;52.052;8.354;2023-03-08T10:45:31;98525.00;;;4.30
16956;BMP180;8594;52.052;8.354;2023-03-08T10:48:00;98518.00;;;4.60
16956;BMP180;8594;52.052;8.354;2023-03-08T10:50:30;98505.00;;;4.40
16956;BMP180;8594;52.052;8.354;2023-03-08T10:53:13;98509.00;;;4.50
16956;BMP180;8594;52.052;8.354;2023-03-08T10:55:45;98523.00;;;4.50
16956;BMP180;8594;52.052;8.354;2023-03-08T10:58:34;98503.00;;;4.30
16956;BMP180;8594;52.052;8.354;2023-03-08T11:01:04;98505.00;;;4.10
16956;BMP180;8594;52.052;8.354;2023-03-08T11:03:32;98514.00;;;4.60
16956;BMP180;8594;52.052;8.354;2023-03-08T11:06:01;98501.00;;;4.30
16956;BMP180;8594;52.052;8.354;2023-03-08T11:08:33;98513.00;;;4.70
16956;BMP180;8594;52.052;8.354;2023-03-08T11:11:08;98520.00;;;4.40
16956;BMP180;8594;52.052;8.354;2023-03-08T11:13:37;98519.00;;;4.30
16956;BMP180;8594;52.052;8.354;2023-03-08T11:16:44;98523.00;;;4.50
16956;BMP180;8594;52.052;8.354;2023-03-08T11:19:30;98512.00;;;4.30
16956;BMP180;8594;52.052;8.354;2023-03-08T11:22:11;98494.00;;;4.20
16956;BMP180;8594;52.052;8.354;2023-03-08T11:25:02;98500.00;;;4.90
16956;BMP180;8594;52.052;8.354;2023-03-08T11:27:48;98506.00;;;4.80
16956;BMP180;8594;52.052;8.354;2023-03-08T11:30:34;98500.00;;;4.30
16956;BMP180;8594;52.052;8.354;2023-03-08T11:33:25;98492.00;;;4.60
16956;BMP180;8594;52.052;8.354;2023-03-08T11:36:04;98495.00;;;4.90
16956;BMP180;8594;52.052;8.354;2023-03-08T11:38:34;98492.00;;;4.70
16956;BMP180;8594;52.052;8.354;2023-03-08T11:41:14;98481.00;;;4.70
16956;BMP180;8594;52.052;8.354;2023-03-08T11:44:07;98483.00;;;4.10
16956;BMP180;8594;52.052;8.354;2023-03-08T11:46:51;98493.00;;;4.00
16956;BMP180;8594;52.052;8.354;2023-03-08T11:49:50;98501.00;;;4.40
16956;BMP180;8594;52.052;8.354;2023-03-08T11:52:31;98487.00;;;4.50
16956;BMP180;8594;52.052;8.354;2023-03-08T11:55:20;98486.00;;;4.40
16956;BMP180;8594;52.052;8.354;2023-03-08T11:57:57;98477.00;;;3.90
16956;BMP180;8594;52.052;8.354;2023-03-08T12:00:32;98486.00;;;3.80
16956;BMP180;8594;52.052;8.354;2023-03-08T12:03:05;98477.00;;;3.80
16956;BMP180;8594;52.052;8.354;2023-03-08T12:05:39;98472.00;;;4.20
16956;BMP180;8594;52.052;8.354;2023-03-08T12:08:15;98466.00;;;4.20
16956;BMP180;8594;52.052;8.354;2023-03-08T12:10:49;98452.00;;;4.10
16956;BMP180;8594;52.052;8.354;2023-03-08T12:13:27;98452.00;;;4.10
16956;BMP180;8594;52.052;8.354;2023-03-08T12:16:01;98448.00;;;4.00
16956;BMP180;8594;52.052;8.354;2023-03-08T12:18:36;98448.00;;;3.80
16956;BMP180;8594;52.052;8.354;2023-03-08T12:21:20;98451.00;;;4.00
16956;BMP180;8594;52.052;8.354;2023-03-08T12:24:08;98446.00;;;4.00
16956;BMP180;8594;52.052;8.354;2023-03-08T12:26:42;98453.00;;;4.40
16956;BMP180;8594;52.052;8.354;2023-03-08T12:29:17;98447.00;;;4.70
16956;BMP180;8594;52.052;8.354;2023-03-08T12:31:46;98449.00;;;4.20
16956;BMP180;8594;52.052;8.354;2023-03-08T12:34:27;98455.00;;;4.50
16956;BMP180;8594;52.052;8.354;2023-03-08T12:36:54;98457.00;;;4.30
16956;BMP180;8594;52.052;8.354;2023-03-08T12:39:29;98445.00;;;4.40
16956;BMP180;8594;52.052;8.354;2023-03-08T12:42:01;98431.00;;;4.30
16956;BMP180;8594;52.052;8.354;2023-03-08T12:44:30;98411.00;;;4.70
16956;BMP180;8594;52.052;8.354;2023-03-08T12:47:00;98411.00;;;4.50
16956;BMP180;8594;52.052;8.354;2023-03-08T12:49:31;98394.00;;;4.40
16956;BMP180;8594;52.052;8.354;2023-03-08T12:52:25;98406.00;;;4.40
16956;BMP180;8594;52.052;8.354;2023-03-08T12:54:57;98395.00;;;4.80
16956;BMP180;8594;52.052;8.354;2023-03-08T12:57:29;98405.00;;;4.50
16956;BMP180;8594;52.052;8.354;2023-03-08T12:59:59;98397.00;;;3.90
16956;BMP180;8594;52.052;8.354;2023-03-08T13:02:33;98412.00;;;4.30
16956;BMP180;8594;52.052;8.354;2023-03-08T13:08:00;98415.00;;;4.40
16956;BMP180;8594;52.052;8.354;2023-03-08T13:10:32;98406.00;;;4.30
16956;BMP180;8594;52.052;8.354;2023-03-08T13:13:24;98395.00;;;4.60
16956;BMP180;8594;52.052;8.354;2023-03-08T13:16:17;98390.00;;;4.70
16956;BMP180;8594;52.052;8.354;2023-03-08T13:18:47;98390.00;;;5.00
16956;BMP180;8594;52.052;8.354;2023-03-08T13:21:26;98393.00;;;4.90
16956;BMP180;8594;52.052;8.354;2023-03-08T13:24:03;98403.00;;;5.00
16956;BMP180;8594;52.052;8.354;2023-03-08T13:27:00;98404.00;;;4.70
16956;BMP180;8594;52.052;8.354;2023-03-08T13:29:33;98408.00;;;4.50
16956;BMP180;8594;52.052;8.354;2023-03-08T13:32:06;98409.00;;;4.40
16956;BMP180;8594;52.052;8.354;2023-03-08T13:34:37;98409.00;;;4.20
16956;BMP180;8594;52.052;8.354;2023-03-08T13:37:18;98408.00;;;4.40
16956;BMP180;8594;52.052;8.354;2023-03-08T13:39:52;98397.00;;;4.20
16956;BMP180;8594;52.052;8.354;2023-03-08T13:42:22;98403.00;;;4.10
16956;BMP180;8594;52.052;8.354;2023-03-08T13:44:50;98398.00;;;3.80
16956;BMP180;8594;52.052;8.354;2023-03-08T13:47:23;98388.00;;;3.70
16956;BMP180;8594;52.052;8.354;2023-03-08T13:49:53;98387.00;;;3.90
16956;BMP180;8594;52.052;8.354;2023-03-08T13:52:24;98395.00;;;4.00
16956;BMP180;8594;52.052;8.354;2023-03-08T13:54:58;98394.00;;;3.90
16956;BMP180;8594;52.052;8.354;2023-03-08T13:57:29;98380.00;;;3.90
16956;BMP180;8594;52.052;8.354;2023-03-08T14:00:00;98379.00;;;3.80
16956;BMP180;8594;52.052;8.354;2023-03-08T14:02:31;98360.00;;;3.60
16956;BMP180;8594;52.052;8.354;2023-03-08T14:04:58;98347.00;;;3.70
16956;BMP180;8594;52.052;8.354;2023-03-08T14:07:29;98353.00;;;3.90
16956;BMP180;8594;52.052;8.354;2023-03-08T14:09:58;98362.00;;;3.80
16956;BMP180;8594;52.052;8.354;2023-03-08T14:12:29;98355.00;;;4.00
16956;BMP180;8594;52.052;8.354;2023-03-08T14:15:02;98349.00;;;4.40
16956;BMP180;8594;52.052;8.354;2023-03-08T14:17:33;98347.00;;;4.40
16956;BMP180;8594;52.052;8.354;2023-03-08T14:20:03;98335.00;;;4.30
16956;BMP180;8594;52.052;8.354;2023-03-08T14:22:36;98335.00;;;4.50
16956;BMP180;8594;52.052;8.354;2023-03-08T14:25:22;98341.00;;;4.10
16956;BMP180;8594;52.052;8.354;2023-03-08T14:27:50;98352.00;;;4.10
16956;BMP180;8594;52.052;8.354;2023-03-08T14:30:20;98348.00;;;4.00
16956;BMP180;8594;52.052;8.354;2023-03-08T14:33:01;98341.00;;;4.00
16956;BMP180;8594;52.052;8.354;2023-03-08T14:35:32;98325.00;;;3.80
16956;BMP180;8594;52.052;8.354;2023-03-08T14:38:00;98322.00;;;3.80
16956;BMP180;8594;52.052;8.354;2023-03-08T14:40:34;98320.00;;;4.40
16956;BMP180;8594;52.052;8.354;2023-03-08T14:43:04;98321.00;;;4.00
16956;BMP180;8594;52.052;8.354;2023-03-08T14:45:35;98311.00;;;3.80
16956;BMP180;8594;52.052;8.354;2023-03-08T14:48:21;98312.00;;;3.90
16956;BMP180;8594;52.052;8.354;2023-03-08T14:50:56;98306.00;;;4.00
16956;BMP180;8594;52.052;8.354;2023-03-08T14:53:30;98291.00;;;4.00
16956;BMP180;8594;52.052;8.354;2023-03-08T14:56:01;98294.00;;;3.90
16956;BMP180;8594;52.052;8.354;2023-03-08T14:58:40;98287.00;;;3.80